Tolland, Massachusetts
Current Conditions -  °F | °C
As of 6:53 PM on Sunday 23 Nov 2014 (Local Time) from KBAF Reporting Station
Scattered Clouds Scattered Clouds  
Wind Chill: 47°   Ceiling: Unl
Heat Index: 49°   Visibility: 10mi
Dew Point: 29°   Wind: 5mph
Humidity: 46%   Direction: 160°SSE
Pressure: 30.11"   Gusts: NA
Location:  42.0855°N, 72.9568°W
Report Text: KBAF 232353Z 16004KT 10SM SCT110 09/M02 A3011 RMK AO2 SLP199 T00941017 10139 20083 50002
Loading
Personal Weather Stations






























Interactive Weather Map New forecast layout! Learn more

10-Day Weather Forecast

Advertisements
Track Severe Weather on mobile